Terminal Aerodrome Forecast
Issued by NWS Sioux Falls, SD

Home | Current Version | Previous Version | Text Only | Print | Product List | Glossary On
Versions: 1 2 3 4 5 6 7 8 9 10 11 12 13 14 15 16 17 18 19 20 21 22 23 24 25 26 27
836
FTUS43 KFSD 050521
TAFFSD
TAF
KFSD 050521Z 0506/0606 21005KT P6SM SCT150 BKN250
     FM050900 17013KT P6SM OVC100
     FM051800 26013KT P6SM SCT050
     FM052100 27013G22KT P6SM BKN018
     FM060300 30013G24KT P6SM BKN025=

USA.gov is the U.S. government's official web portal to all federal, state and local government web resources and services.